Almirante Tamandare, Brazil
Current Conditions -  °F | °C
As of 6:00 PM on Saturday 20 Dec 2014 (Local Time) from SBBI Reporting Station
Scattered Clouds Scattered Clouds  
Wind Chill: 82°   Ceiling: Unl
Heat Index: 85°   Visibility: 6mi
Dew Point: 66°   Wind: 9mph
Humidity: 58%   Direction: 350°N
Pressure: 29.83"   Gusts: NA
Location:  25.32°S, 49.31°W
Report Text: SBBI 202000Z 35008KT 9999 SCT030 28/19 Q1010
Loading
Personal Weather Stations






























Interactive Weather Map New forecast layout! Learn more

10-Day Weather Forecast

Advertisements
Track Severe Weather on mobile